Rutherglen, United Kingdom
Current Conditions -  °F | °C
As of 7:50 PM on Wednesday 26 Nov 2014 (Local Time) from EGPF Reporting Station
Drizzle Drizzle  
Wind Chill: 41°   Ceiling: 900
Heat Index: 41°   Visibility: 4mi
Dew Point: 41°   Wind: 2mph
Humidity: 100%   Direction: 20°NNE
Pressure: 29.85"   Gusts: NA
Location:  55.84°N, 4.24°W
Report Text: EGPF 261950Z 02002KT 6000 -DZ OVC009 05/05 Q1011
Loading
Personal Weather Stations






























Interactive Weather Map New forecast layout! Learn more

10-Day Weather Forecast

Advertisements
Track Severe Weather on mobile